Time;durP1;ratioP1;P1;durP2;ratioP2;P2;SDS_P1;SDS_P2;PMS_P1;PMS_P2;Temp;Humidity;BMP_temperature;BMP_pressure;BME280_temperature;BME280_humidity;BME280_pressure;Samples;Min_cycle;Max_cycle;Signal;HPM_P1;HPM_P2
2022/04/23 00:00:34;;;;;;;34.13;16.92;;;;;;;;;;5013009;28;20079;-76
2022/04/23 00:03:01;;;;;;;35.83;19.05;;;;;;;;;;5013076;28;20081;-77
2022/04/23 00:05:29;;;;;;;32.58;17.17;;;;;;;;;;5012920;28;20065;-78
2022/04/23 00:07:56;;;;;;;35.72;17.48;;;;;;;;;;5013300;28;20132;-76
2022/04/23 00:10:25;;;;;;;36.53;19.00;;;;;;;;;;5012928;28;20077;-77
2022/04/23 00:12:54;;;;;;;34.35;18.27;;;;;;;;;;5012869;28;20054;-76
2022/04/23 00:15:21;;;;;;;36.92;18.80;;;;;;;;;;5013332;28;20129;-77
2022/04/23 00:17:48;;;;;;;36.22;18.48;;;;;;;;;;5013519;28;20049;-78
2022/04/23 00:20:16;;;;;;;34.30;18.20;;;;;;;;;;5013116;28;20560;-79
2022/04/23 00:22:43;;;;;;;40.60;20.13;;;;;;;;;;5012692;28;20511;-79
2022/04/23 00:25:11;;;;;;;36.03;19.17;;;;;;;;;;5012925;28;20112;-76
2022/04/23 00:27:39;;;;;;;36.30;18.63;;;;;;;;;;5012617;28;20049;-76
2022/04/23 00:30:07;;;;;;;39.40;19.77;;;;;;;;;;5012867;28;20100;-77
2022/04/23 00:32:33;;;;;;;39.70;19.33;;;;;;;;;;5012813;28;20049;-76
2022/04/23 00:35:00;;;;;;;41.83;20.52;;;;;;;;;;5012684;28;20181;-77
2022/04/23 00:37:27;;;;;;;43.25;20.20;;;;;;;;;;5012791;28;20580;-77
2022/04/23 00:39:54;;;;;;;40.30;19.65;;;;;;;;;;5012559;28;20053;-77
2022/04/23 00:42:20;;;;;;;38.22;19.50;;;;;;;;;;5013202;28;20096;-75
2022/04/23 00:44:49;;;;;;;39.47;19.40;;;;;;;;;;5014238;28;20049;-77
2022/04/23 00:47:15;;;;;;;41.10;18.67;;;;;;;;;;5012845;28;20180;-77
2022/04/23 00:49:42;;;;;;;35.42;18.40;;;;;;;;;;5012233;28;20088;-76
2022/04/23 00:52:09;;;;;;;35.17;17.67;;;;;;;;;;5012499;28;20457;-77
2022/04/23 00:54:38;;;;;;;40.70;20.27;;;;;;;;;;5012290;28;20108;-77
2022/04/23 00:57:06;;;;;;;37.90;19.45;;;;;;;;;;5013028;28;20143;-78
2022/04/23 00:59:33;;;;;;;41.47;20.52;;;;;;;;;;5013444;28;20128;-78
2022/04/23 01:02:03;;;;;;;43.38;21.30;;;;;;;;;;5013539;28;20053;-78
2022/04/23 01:04:30;;;;;;;40.47;20.48;;;;;;;;;;5013809;28;20118;-76
2022/04/23 01:06:57;;;;;;;41.33;19.02;;;;;;;;;;5014305;28;20513;-77
2022/04/23 01:09:24;;;;;;;42.85;20.90;;;;;;;;;;5014010;28;20505;-77
2022/04/23 01:11:52;;;;;;;43.33;21.48;;;;;;;;;;5013586;28;20137;-76
2022/04/23 01:14:18;;;;;;;38.20;19.48;;;;;;;;;;5013509;28;20050;-77
2022/04/23 01:16:45;;;;;;;39.83;19.73;;;;;;;;;;5012751;28;20057;-77
2022/04/23 01:19:13;;;;;;;38.28;20.27;;;;;;;;;;5013060;28;20140;-77
2022/04/23 01:21:41;;;;;;;37.20;19.10;;;;;;;;;;5012124;28;20049;-77
2022/04/23 01:24:08;;;;;;;37.33;19.02;;;;;;;;;;5013044;28;20046;-77
2022/04/23 01:26:35;;;;;;;40.33;19.58;;;;;;;;;;5013754;28;20046;-77
2022/04/23 01:29:02;;;;;;;41.25;19.67;;;;;;;;;;5013216;28;20445;-76
2022/04/23 01:31:29;;;;;;;41.25;20.77;;;;;;;;;;5013120;28;20046;-76
2022/04/23 01:33:56;;;;;;;43.05;20.80;;;;;;;;;;5013365;28;20046;-77
2022/04/23 01:36:23;;;;;;;38.92;20.75;;;;;;;;;;5012767;28;20054;-78
2022/04/23 01:38:51;;;;;;;38.33;19.55;;;;;;;;;;5013887;28;20050;-78
2022/04/23 01:41:18;;;;;;;38.92;19.88;;;;;;;;;;5013135;28;20053;-77
2022/04/23 01:43:45;;;;;;;40.63;20.90;;;;;;;;;;5012335;28;20416;-78
2022/04/23 01:46:11;;;;;;;43.17;20.38;;;;;;;;;;5012814;28;20460;-77
2022/04/23 01:48:38;;;;;;;42.42;20.85;;;;;;;;;;5014011;28;20045;-77
2022/04/23 01:51:05;;;;;;;38.97;19.48;;;;;;;;;;5013194;28;20104;-77
2022/04/23 01:53:32;;;;;;;36.30;19.75;;;;;;;;;;5012505;28;20046;-77
2022/04/23 01:56:00;;;;;;;39.42;19.73;;;;;;;;;;5013411;28;20100;-77
2022/04/23 01:58:27;;;;;;;39.80;19.95;;;;;;;;;;5014026;28;20053;-77
2022/04/23 02:00:54;;;;;;;41.42;21.17;;;;;;;;;;5013249;28;20054;-77
2022/04/23 02:03:21;;;;;;;40.90;20.70;;;;;;;;;;5013035;28;20073;-78
2022/04/23 02:05:48;;;;;;;41.95;20.02;;;;;;;;;;5013871;28;20050;-79
2022/04/23 02:08:16;;;;;;;42.40;20.23;;;;;;;;;;5014465;28;20052;-77
2022/04/23 02:10:43;;;;;;;41.60;21.00;;;;;;;;;;5016740;28;20057;-78
2022/04/23 02:13:12;;;;;;;42.67;21.42;;;;;;;;;;5016502;28;20505;-77
2022/04/23 02:15:40;;;;;;;38.72;19.15;;;;;;;;;;5017776;28;20053;-77
2022/04/23 02:18:08;;;;;;;40.40;20.50;;;;;;;;;;5016727;28;20108;-78
2022/04/23 02:20:35;;;;;;;41.38;19.38;;;;;;;;;;5016854;28;20046;-76
2022/04/23 02:23:02;;;;;;;40.97;20.40;;;;;;;;;;5017173;28;20493;-77
2022/04/23 02:25:29;;;;;;;38.22;19.63;;;;;;;;;;5016062;28;20100;-77
2022/04/23 02:27:56;;;;;;;45.22;21.45;;;;;;;;;;5016821;28;20057;-77
2022/04/23 02:30:24;;;;;;;42.78;21.02;;;;;;;;;;5016200;28;20497;-78
2022/04/23 02:32:51;;;;;;;38.53;19.17;;;;;;;;;;5016028;28;20095;-77
2022/04/23 02:35:19;;;;;;;38.17;18.02;;;;;;;;;;5015400;28;20054;-76
2022/04/23 02:37:47;;;;;;;37.58;17.98;;;;;;;;;;5016426;28;20496;-78
2022/04/23 02:40:15;;;;;;;36.03;16.55;;;;;;;;;;5016719;28;20057;-78
2022/04/23 02:42:42;;;;;;;36.15;17.15;;;;;;;;;;5016530;28;20057;-79
2022/04/23 02:45:10;;;;;;;38.78;18.67;;;;;;;;;;5013648;28;20050;-77
2022/04/23 02:47:46;;;;;;;37.92;18.02;;;;;;;;;;4996147;28;20046;-78
2022/04/23 02:50:13;;;;;;;38.90;18.52;;;;;;;;;;4996316;28;20411;-77
2022/04/23 02:52:42;;;;;;;41.20;18.52;;;;;;;;;;4996188;28;20046;-78
2022/04/23 02:55:09;;;;;;;34.63;17.85;;;;;;;;;;4996237;28;20086;-77
2022/04/23 02:57:36;;;;;;;39.65;18.48;;;;;;;;;;4996409;28;20047;-77
2022/04/23 03:00:05;;;;;;;38.42;19.27;;;;;;;;;;4996297;28;20097;-77
2022/04/23 03:02:36;;;;;;;37.42;18.45;;;;;;;;;;4996120;28;20061;-78
2022/04/23 03:05:08;;;;;;;38.97;17.85;;;;;;;;;;4996224;28;20108;-78
2022/04/23 03:07:35;;;;;;;38.40;18.25;;;;;;;;;;4996387;28;20058;-79
2022/04/23 03:10:03;;;;;;;39.60;20.25;;;;;;;;;;4996113;28;20096;-80
2022/04/23 03:12:30;;;;;;;41.78;18.80;;;;;;;;;;4995751;28;20108;-77
2022/04/23 03:14:57;;;;;;;40.00;18.15;;;;;;;;;;4995848;28;20055;-77
2022/04/23 03:17:24;;;;;;;38.72;18.73;;;;;;;;;;4996938;28;20138;-80
2022/04/23 03:19:51;;;;;;;40.53;20.08;;;;;;;;;;4996190;28;20105;-78
2022/04/23 03:22:19;;;;;;;42.67;20.67;;;;;;;;;;4996057;28;20043;-78
2022/04/23 03:24:46;;;;;;;41.83;18.55;;;;;;;;;;4995428;28;20086;-78
2022/04/23 03:27:13;;;;;;;39.72;19.17;;;;;;;;;;4994537;28;20505;-75
2022/04/23 03:29:40;;;;;;;37.78;17.52;;;;;;;;;;4994103;28;20046;-76
2022/04/23 03:32:08;;;;;;;38.13;18.73;;;;;;;;;;4994302;28;20054;-78
2022/04/23 03:34:34;;;;;;;45.25;19.60;;;;;;;;;;4993871;28;20182;-78
2022/04/23 03:37:01;;;;;;;42.05;18.45;;;;;;;;;;4994032;28;20051;-77
2022/04/23 03:39:29;;;;;;;43.95;20.23;;;;;;;;;;4993835;28;20486;-78
2022/04/23 03:41:56;;;;;;;40.78;17.35;;;;;;;;;;4994158;28;20093;-77
2022/04/23 03:44:23;;;;;;;38.50;18.50;;;;;;;;;;4993688;28;20475;-76
2022/04/23 03:46:49;;;;;;;39.92;17.30;;;;;;;;;;4993675;28;20052;-77
2022/04/23 03:49:16;;;;;;;39.47;18.20;;;;;;;;;;4993979;28;20050;-76
2022/04/23 03:51:43;;;;;;;38.97;16.83;;;;;;;;;;4994143;28;20089;-77
2022/04/23 03:54:10;;;;;;;41.78;18.00;;;;;;;;;;4995526;28;20055;-76
2022/04/23 03:56:38;;;;;;;38.15;16.60;;;;;;;;;;4994435;28;20417;-76
2022/04/23 03:59:05;;;;;;;36.67;16.50;;;;;;;;;;4994279;28;20046;-76
2022/04/23 04:01:32;;;;;;;38.08;17.63;;;;;;;;;;4994278;28;20054;-75
2022/04/23 04:03:58;;;;;;;41.13;17.25;;;;;;;;;;4993598;28;20128;-76
2022/04/23 04:06:25;;;;;;;39.75;17.52;;;;;;;;;;4993202;28;20096;-75
2022/04/23 04:08:53;;;;;;;37.58;17.50;;;;;;;;;;4993582;28;20042;-76
2022/04/23 04:11:20;;;;;;;38.20;16.20;;;;;;;;;;4993277;28;20046;-77
2022/04/23 04:13:48;;;;;;;37.53;17.23;;;;;;;;;;4993089;28;20050;-76
2022/04/23 04:16:15;;;;;;;39.22;17.67;;;;;;;;;;4993487;28;20046;-78
2022/04/23 04:18:43;;;;;;;38.90;17.45;;;;;;;;;;4993098;28;20403;-77
2022/04/23 04:21:10;;;;;;;37.70;16.67;;;;;;;;;;4992903;28;20433;-77
2022/04/23 04:23:36;;;;;;;39.47;18.02;;;;;;;;;;4992762;28;20101;-77
2022/04/23 04:26:03;;;;;;;42.28;18.92;;;;;;;;;;4992641;28;20121;-77
2022/04/23 04:28:32;;;;;;;40.58;16.38;;;;;;;;;;5024405;23;20511;-67
2022/04/23 04:33:44;;;;;;;41.00;18.50;;;;;;;;;;4993084;28;20061;-67
2022/04/23 04:36:11;;;;;;;39.20;17.50;;;;;;;;;;4992856;28;20082;-67
2022/04/23 04:38:38;;;;;;;41.95;19.17;;;;;;;;;;4993163;28;20518;-67
2022/04/23 04:41:05;;;;;;;42.85;18.40;;;;;;;;;;4993296;28;20073;-67
2022/04/23 04:43:32;;;;;;;42.55;19.95;;;;;;;;;;4993060;28;20499;-67
2022/04/23 04:46:00;;;;;;;44.63;18.23;;;;;;;;;;4992334;28;20057;-67
2022/04/23 04:48:27;;;;;;;41.97;19.63;;;;;;;;;;4992779;28;20057;-67
2022/04/23 04:50:54;;;;;;;43.75;19.08;;;;;;;;;;4992675;28;20042;-67
2022/04/23 04:53:21;;;;;;;43.22;18.50;;;;;;;;;;4992871;28;20109;-67
2022/04/23 04:55:48;;;;;;;43.97;19.65;;;;;;;;;;4992413;28;20050;-67
2022/04/23 04:58:15;;;;;;;48.53;20.75;;;;;;;;;;4992592;28;20046;-67
2022/04/23 05:00:42;;;;;;;52.42;21.92;;;;;;;;;;4992331;28;20050;-67
2022/04/23 05:03:10;;;;;;;46.38;20.70;;;;;;;;;;4992541;28;20050;-67
2022/04/23 05:05:37;;;;;;;48.03;19.35;;;;;;;;;;4992356;28;20054;-67
2022/04/23 05:08:05;;;;;;;48.13;20.55;;;;;;;;;;4992527;28;20042;-67
2022/04/23 05:10:32;;;;;;;49.17;20.83;;;;;;;;;;4992590;28;20043;-68
2022/04/23 05:12:59;;;;;;;51.42;21.75;;;;;;;;;;4992777;28;20484;-68
2022/04/23 05:15:25;;;;;;;46.83;20.90;;;;;;;;;;4992352;28;20054;-68
2022/04/23 05:17:53;;;;;;;56.28;23.13;;;;;;;;;;4992920;28;20054;-68
2022/04/23 05:20:22;;;;;;;46.10;20.17;;;;;;;;;;4992665;28;20495;-68
2022/04/23 05:22:49;;;;;;;46.38;20.33;;;;;;;;;;4992650;28;20081;-68
2022/04/23 05:25:16;;;;;;;48.13;20.35;;;;;;;;;;4992641;28;20046;-67
2022/04/23 05:27:43;;;;;;;54.10;22.30;;;;;;;;;;4992079;28;20073;-67
2022/04/23 05:30:11;;;;;;;52.00;20.65;;;;;;;;;;4992321;28;20057;-67
2022/04/23 05:32:38;;;;;;;51.88;22.20;;;;;;;;;;4992682;28;20147;-67
2022/04/23 05:35:06;;;;;;;50.90;20.58;;;;;;;;;;4992367;28;20061;-67
2022/04/23 05:37:34;;;;;;;43.13;19.50;;;;;;;;;;4992522;28;20061;-67
2022/04/23 05:40:01;;;;;;;48.83;21.02;;;;;;;;;;4992279;28;20412;-67
2022/04/23 05:42:28;;;;;;;46.17;21.55;;;;;;;;;;4992039;28;20057;-67
2022/04/23 05:44:55;;;;;;;43.45;19.52;;;;;;;;;;4995713;28;20046;-67
2022/04/23 05:47:22;;;;;;;42.03;19.30;;;;;;;;;;4976435;28;20051;-67
2022/04/23 05:49:49;;;;;;;44.78;18.90;;;;;;;;;;4976702;28;20047;-67
2022/04/23 05:52:16;;;;;;;41.55;18.65;;;;;;;;;;4976517;28;20055;-67
2022/04/23 05:54:44;;;;;;;38.70;18.02;;;;;;;;;;4976160;28;20423;-68
2022/04/23 05:57:11;;;;;;;42.00;19.00;;;;;;;;;;4976959;28;20055;-67
2022/04/23 05:59:38;;;;;;;40.78;18.95;;;;;;;;;;4976212;28;20042;-67
2022/04/23 06:02:05;;;;;;;38.92;17.48;;;;;;;;;;4976199;28;20043;-67
2022/04/23 06:04:32;;;;;;;43.75;18.85;;;;;;;;;;4976759;28;20555;-67
2022/04/23 06:06:59;;;;;;;44.47;18.08;;;;;;;;;;4975948;28;20093;-67
2022/04/23 06:09:26;;;;;;;43.72;19.80;;;;;;;;;;4976083;28;20086;-66
2022/04/23 06:11:54;;;;;;;43.20;17.73;;;;;;;;;;4976135;28;20050;-67
2022/04/23 06:14:21;;;;;;;43.30;18.35;;;;;;;;;;4976507;28;20051;-66
2022/04/23 06:16:48;;;;;;;39.50;16.50;;;;;;;;;;4976124;28;20053;-67
2022/04/23 06:19:15;;;;;;;36.38;17.15;;;;;;;;;;4976324;28;20400;-67
2022/04/23 06:21:42;;;;;;;42.38;17.75;;;;;;;;;;4975964;28;20061;-67
2022/04/23 06:24:09;;;;;;;40.20;16.02;;;;;;;;;;4975717;28;20063;-67
2022/04/23 06:26:36;;;;;;;41.35;15.50;;;;;;;;;;4975830;28;20411;-67
2022/04/23 06:29:04;;;;;;;40.42;16.52;;;;;;;;;;4975780;28;20059;-67
2022/04/23 06:31:31;;;;;;;35.65;14.98;;;;;;;;;;4975626;28;20488;-67
2022/04/23 06:33:58;;;;;;;37.03;15.25;;;;;;;;;;4975749;28;20061;-67
2022/04/23 06:36:25;;;;;;;38.33;16.15;;;;;;;;;;4975062;28;20059;-67
2022/04/23 06:38:53;;;;;;;40.70;16.00;;;;;;;;;;4975584;28;20066;-67
2022/04/23 06:41:20;;;;;;;47.22;16.50;;;;;;;;;;4975675;28;20061;-67
2022/04/23 06:43:47;;;;;;;41.97;16.67;;;;;;;;;;4975522;28;20065;-67
2022/04/23 06:46:15;;;;;;;41.33;17.55;;;;;;;;;;4985381;28;20061;-67
2022/04/23 06:48:42;;;;;;;41.85;17.40;;;;;;;;;;4994884;28;20057;-67
2022/04/23 06:51:09;;;;;;;46.92;17.15;;;;;;;;;;4994679;28;20429;-68
2022/04/23 06:53:36;;;;;;;42.25;16.75;;;;;;;;;;4994369;28;20053;-67
2022/04/23 06:56:03;;;;;;;44.13;16.70;;;;;;;;;;4994724;28;20402;-66
2022/04/23 06:58:31;;;;;;;46.60;19.73;;;;;;;;;;4994575;28;20408;-67
2022/04/23 07:00:58;;;;;;;46.88;18.80;;;;;;;;;;4994778;28;20092;-67
2022/04/23 07:03:27;;;;;;;45.75;18.10;;;;;;;;;;4994596;28;20054;-67
2022/04/23 07:05:54;;;;;;;49.78;19.75;;;;;;;;;;4994638;28;20058;-67
2022/04/23 07:08:21;;;;;;;48.40;19.75;;;;;;;;;;4994643;28;20129;-66
2022/04/23 07:10:48;;;;;;;54.85;22.48;;;;;;;;;;4993507;28;20415;-67
2022/04/23 07:13:16;;;;;;;58.30;21.70;;;;;;;;;;4993588;28;20056;-66
2022/04/23 07:15:44;;;;;;;52.63;21.23;;;;;;;;;;4993758;28;20411;-67
2022/04/23 07:18:11;;;;;;;51.03;20.67;;;;;;;;;;4994268;28;20834;-67
2022/04/23 07:20:40;;;;;;;51.63;19.10;;;;;;;;;;4994518;28;20054;-67
2022/04/23 07:25:51;;;;;;;48.72;19.13;;;;;;;;;;4994144;28;20100;-67
2022/04/23 07:28:20;;;;;;;44.67;19.33;;;;;;;;;;4994210;28;20053;-67
2022/04/23 07:30:47;;;;;;;46.47;17.23;;;;;;;;;;4994370;28;20056;-67
2022/04/23 07:37:28;;;;;;;55.63;20.15;;;;;;;;;;4994438;28;20626;-68
2022/04/23 07:38:44;;;;;;;56.33;20.50;;;;;;;;;;4971503;28;20061;-68
2022/04/23 07:41:11;;;;;;;50.13;21.58;;;;;;;;;;4994017;28;20495;-66
2022/04/23 07:43:39;;;;;;;56.70;21.30;;;;;;;;;;4993991;28;20105;-69
2022/04/23 07:46:06;;;;;;;69.10;21.67;;;;;;;;;;4984543;28;20138;-69
2022/04/23 07:48:34;;;;;;;53.05;20.52;;;;;;;;;;4974680;28;20138;-67
2022/04/23 07:51:02;;;;;;;57.13;20.30;;;;;;;;;;4974469;28;20058;-68
2022/04/23 07:53:29;;;;;;;54.33;21.02;;;;;;;;;;4974465;28;20477;-66
2022/04/23 07:55:56;;;;;;;58.58;21.27;;;;;;;;;;4974409;28;20109;-66
2022/04/23 07:58:23;;;;;;;51.83;20.88;;;;;;;;;;4974232;28;20051;-68
2022/04/23 08:00:51;;;;;;;50.80;21.27;;;;;;;;;;4974277;28;20055;-66
2022/04/23 08:03:18;;;;;;;54.72;21.38;;;;;;;;;;4974296;28;20082;-67
2022/04/23 08:05:45;;;;;;;56.50;21.52;;;;;;;;;;4973043;28;20504;-67
2022/04/23 08:08:17;;;;;;;49.88;21.40;;;;;;;;;;4974493;28;20212;-67
2022/04/23 08:10:44;;;;;;;60.17;23.60;;;;;;;;;;4974405;28;20058;-67
2022/04/23 08:13:11;;;;;;;49.80;21.90;;;;;;;;;;4974789;28;20138;-67
2022/04/23 08:15:39;;;;;;;53.40;23.05;;;;;;;;;;4974158;28;20066;-67
2022/04/23 08:18:07;;;;;;;55.10;23.27;;;;;;;;;;4973822;28;20153;-67
2022/04/23 08:20:34;;;;;;;53.35;21.67;;;;;;;;;;4973886;28;20061;-68
2022/04/23 08:23:02;;;;;;;46.92;21.55;;;;;;;;;;4974137;28;20051;-67
2022/04/23 08:25:31;;;;;;;53.05;22.95;;;;;;;;;;4973597;28;20047;-67
2022/04/23 08:30:34;;;;;;;52.00;20.77;;;;;;;;;;4973860;28;20416;-67
2022/04/23 08:30:45;;;;;;;56.90;23.25;;;;;;;;;;4974332;28;20571;-67
2022/04/23 08:33:12;;;;;;;61.72;24.88;;;;;;;;;;4973590;28;20098;-67
2022/04/23 08:35:39;;;;;;;50.22;22.65;;;;;;;;;;4973318;28;20101;-67
2022/04/23 08:38:07;;;;;;;52.35;22.48;;;;;;;;;;4973715;28;20058;-67
2022/04/23 08:40:38;;;;;;;54.83;25.38;;;;;;;;;;4973577;28;20053;-67
2022/04/23 08:43:06;;;;;;;50.85;22.90;;;;;;;;;;4973490;28;20061;-67
2022/04/23 08:45:36;;;;;;;54.25;23.77;;;;;;;;;;4977846;28;20050;-67
2022/04/23 08:48:08;;;;;;;53.22;23.38;;;;;;;;;;4992804;28;20514;-67
2022/04/23 08:50:36;;;;;;;52.38;22.48;;;;;;;;;;4992717;28;20428;-67
2022/04/23 08:53:08;;;;;;;49.00;22.42;;;;;;;;;;4992644;28;20097;-67
2022/04/23 08:55:37;;;;;;;51.05;24.20;;;;;;;;;;4992623;28;20066;-68
2022/04/23 08:58:04;;;;;;;50.78;22.98;;;;;;;;;;4993218;28;20376;-67
2022/04/23 09:00:31;;;;;;;49.05;22.67;;;;;;;;;;4988734;28;20042;-68
2022/04/23 09:02:58;;;;;;;48.78;22.75;;;;;;;;;;4983480;28;20555;-67
2022/04/23 09:05:27;;;;;;;48.15;23.05;;;;;;;;;;4983516;28;20133;-68
2022/04/23 09:07:56;;;;;;;51.00;23.65;;;;;;;;;;4983490;28;20056;-68
2022/04/23 09:10:44;;;;;;;44.60;22.50;;;;;;;;;;4986725;28;20462;-68
2022/04/23 09:13:11;;;;;;;49.45;23.85;;;;;;;;;;4993002;28;20073;-68
2022/04/23 09:24:09;;;;;;;48.10;22.52;;;;;;;;;;4986270;28;20552;-67
2022/04/23 09:26:41;;;;;;;47.83;21.10;;;;;;;;;;4986449;28;20051;-67
2022/04/23 09:29:14;;;;;;;43.90;20.77;;;;;;;;;;4985584;28;20459;-67
2022/04/23 09:31:42;;;;;;;41.55;20.60;;;;;;;;;;4984995;28;20066;-67
2022/04/23 09:34:16;;;;;;;43.28;20.15;;;;;;;;;;4988677;28;20522;-68
2022/04/23 09:36:50;;;;;;;46.60;21.42;;;;;;;;;;4977464;28;20050;-68
2022/04/23 09:39:30;;;;;;;48.15;20.40;;;;;;;;;;4977448;28;20051;-67
2022/04/23 09:42:12;;;;;;;;;;;;;;;;;;4977747;28;20441;-68
2022/04/23 09:44:40;;;;;;;43.42;19.17;;;;;;;;;;4976757;28;19922;-67
2022/04/23 09:47:07;;;;;;;52.90;26.27;;;;;;;;;;4994451;28;20049;-67
2022/04/23 09:49:34;;;;;;;44.35;19.33;;;;;;;;;;4996711;28;20543;-67
2022/04/23 09:52:04;;;;;;;40.65;19.45;;;;;;;;;;4996883;28;20126;-67
2022/04/23 09:54:32;;;;;;;48.15;22.48;;;;;;;;;;4997465;28;20046;-67
2022/04/23 09:56:59;;;;;;;49.70;23.27;;;;;;;;;;4996622;28;20055;-67
2022/04/23 09:59:28;;;;;;;44.80;21.23;;;;;;;;;;4996809;28;20508;-67
2022/04/23 10:01:55;;;;;;;43.97;22.10;;;;;;;;;;4996207;28;20133;-68
2022/04/23 10:04:24;;;;;;;48.13;22.67;;;;;;;;;;4996763;28;20250;-68
2022/04/23 10:06:52;;;;;;;56.60;25.88;;;;;;;;;;4996250;28;20054;-67
2022/04/23 10:09:22;;;;;;;52.67;24.60;;;;;;;;;;4996139;28;20105;-67
2022/04/23 10:11:56;;;;;;;67.70;28.97;;;;;;;;;;4996363;28;20127;-68
2022/04/23 10:14:24;;;;;;;69.25;28.33;;;;;;;;;;4996355;28;20509;-67
2022/04/23 10:16:54;;;;;;;62.80;27.77;;;;;;;;;;4996256;28;20058;-67
2022/04/23 10:19:22;;;;;;;70.72;30.02;;;;;;;;;;4996153;28;20057;-67
2022/04/23 10:21:57;;;;;;;73.03;30.88;;;;;;;;;;4996287;28;20423;-67
2022/04/23 10:24:32;;;;;;;72.15;31.45;;;;;;;;;;4995941;28;20097;-68
2022/04/23 10:27:06;;;;;;;76.47;31.13;;;;;;;;;;4995774;28;20105;-67
2022/04/23 10:29:35;;;;;;;62.97;28.27;;;;;;;;;;4995023;28;20490;-67
2022/04/23 10:32:24;;;;;;;69.40;31.10;;;;;;;;;;4996045;28;20419;-67
2022/04/23 10:34:51;;;;;;;79.95;31.92;;;;;;;;;;4995568;28;20423;-67
2022/04/23 10:37:19;;;;;;;70.13;28.52;;;;;;;;;;4995514;28;20054;-67
2022/04/23 10:40:17;;;;;;;67.38;30.55;;;;;;;;;;4995628;28;20090;-67
2022/04/23 10:43:12;;;;;;;70.00;28.38;;;;;;;;;;4995337;28;20058;-67
2022/04/23 10:45:40;;;;;;;69.32;27.95;;;;;;;;;;4989480;28;20129;-67
2022/04/23 10:48:46;;;;;;;71.30;30.05;;;;;;;;;;4976262;28;20058;-67
2022/04/23 10:51:18;;;;;;;69.15;27.55;;;;;;;;;;4935326;29;20088;-68
2022/04/23 10:53:57;;;;;;;71.30;29.60;;;;;;;;;;4970170;28;20460;-69
2022/04/23 10:56:26;;;;;;;72.78;29.00;;;;;;;;;;4977244;28;20055;-67
2022/04/23 10:58:53;;;;;;;68.45;28.10;;;;;;;;;;4976256;28;20059;-67
2022/04/23 11:01:25;;;;;;;68.18;29.35;;;;;;;;;;4977009;28;20057;-67
2022/04/23 11:04:13;;;;;;;61.67;25.80;;;;;;;;;;4976648;28;20138;-67
2022/04/23 11:12:34;;;;;;;68.07;28.15;;;;;;;;;;4976198;28;20097;-67
2022/04/23 11:15:02;;;;;;;68.25;28.75;;;;;;;;;;4975810;28;20050;-74
2022/04/23 11:17:53;;;;;;;61.78;27.45;;;;;;;;;;4976994;28;20051;-70
2022/04/23 11:20:38;;;;;;;62.60;28.08;;;;;;;;;;4975894;28;20110;-69
2022/04/23 11:23:07;;;;;;;70.15;27.00;;;;;;;;;;4976805;28;20054;-69
2022/04/23 11:25:34;;;;;;;82.32;34.10;;;;;;;;;;4975358;28;20086;-71
2022/04/23 11:28:16;;;;;;;67.60;29.25;;;;;;;;;;4975792;28;20131;-69
2022/04/23 11:30:43;;;;;;;70.97;33.05;;;;;;;;;;4976537;28;20081;-67
2022/04/23 11:33:12;;;;;;;70.68;29.73;;;;;;;;;;4976470;28;20516;-65
2022/04/23 11:35:42;;;;;;;66.15;29.92;;;;;;;;;;4976255;28;20051;-67
2022/04/23 11:38:22;;;;;;;66.57;28.92;;;;;;;;;;4975906;28;20054;-67
2022/04/23 11:40:50;;;;;;;62.65;28.95;;;;;;;;;;4975341;28;20507;-68
2022/04/23 11:43:33;;;;;;;69.43;29.25;;;;;;;;;;4977331;28;20051;-68
2022/04/23 11:46:06;;;;;;;65.68;27.65;;;;;;;;;;4983990;28;20073;-67
2022/04/23 11:48:43;;;;;;;63.70;29.15;;;;;;;;;;4994834;28;20104;-68
2022/04/23 11:51:14;;;;;;;76.03;33.15;;;;;;;;;;4994727;28;20089;-68
2022/04/23 11:53:49;;;;;;;93.35;37.08;;;;;;;;;;4994907;28;20062;-68
2022/04/23 11:56:22;;;;;;;66.57;29.60;;;;;;;;;;4994672;28;20085;-68
2022/04/23 11:58:49;;;;;;;66.25;28.15;;;;;;;;;;4994880;28;20054;-66
2022/04/23 12:01:16;;;;;;;65.97;28.48;;;;;;;;;;4994443;28;20145;-66
2022/04/23 12:03:49;;;;;;;74.60;33.15;;;;;;;;;;4994470;28;20061;-67
2022/04/23 12:06:17;;;;;;;68.15;28.67;;;;;;;;;;4994042;28;20050;-67
2022/04/23 12:08:45;;;;;;;68.53;30.90;;;;;;;;;;4994623;28;20052;-67
2022/04/23 12:11:23;;;;;;;64.25;29.83;;;;;;;;;;4993563;28;20054;-68
2022/04/23 12:13:50;;;;;;;65.55;29.90;;;;;;;;;;4994693;28;20109;-67
2022/04/23 12:16:43;;;;;;;67.10;28.60;;;;;;;;;;4994692;28;20050;-71
2022/04/23 12:19:19;;;;;;;60.95;26.90;;;;;;;;;;4989073;28;20056;-69
2022/04/23 12:22:03;;;;;;;100.03;42.35;;;;;;;;;;4994588;28;20356;-68
2022/04/23 12:24:34;;;;;;;71.47;29.83;;;;;;;;;;4992561;28;20122;-67
2022/04/23 12:27:03;;;;;;;68.80;30.92;;;;;;;;;;4993500;28;20534;-67
2022/04/23 12:40:45;;;;;;;64.53;28.80;;;;;;;;;;4993088;28;20053;-67
2022/04/23 12:43:25;;;;;;;65.47;26.85;;;;;;;;;;4993194;28;20553;-68
2022/04/23 12:45:52;;;;;;;;;;;;;;;;;;4985848;28;20429;-67
2022/04/23 12:48:19;;;;;;;61.50;25.98;;;;;;;;;;4973523;28;20276;-68
2022/04/23 12:50:46;;;;;;;65.57;29.15;;;;;;;;;;4973616;28;20473;-67
2022/04/23 12:53:32;;;;;;;63.83;27.48;;;;;;;;;;4973257;28;20047;-69
2022/04/23 12:56:01;;;;;;;62.92;26.42;;;;;;;;;;4973169;28;20097;-67
2022/04/23 12:58:30;;;;;;;70.18;28.20;;;;;;;;;;4973464;28;20086;-68
2022/04/23 13:00:57;;;;;;;70.10;29.33;;;;;;;;;;4981914;28;20551;-70
2022/04/23 13:03:33;;;;;;;61.30;27.90;;;;;;;;;;4985935;28;20055;-67
2022/04/23 13:06:00;;;;;;;65.95;28.42;;;;;;;;;;4990424;28;20562;-67
2022/04/23 13:11:30;;;;;;;63.28;27.75;;;;;;;;;;4992951;28;20152;-66
2022/04/23 13:13:59;;;;;;;65.57;27.02;;;;;;;;;;4993626;28;20478;-67
2022/04/23 13:16:28;;;;;;;65.18;27.15;;;;;;;;;;4992545;28;20062;-68
2022/04/23 13:18:56;;;;;;;59.58;26.08;;;;;;;;;;4992399;28;20058;-67
2022/04/23 13:21:25;;;;;;;59.28;27.50;;;;;;;;;;4992666;28;20053;-69
2022/04/23 13:23:54;;;;;;;63.15;28.38;;;;;;;;;;4992701;28;20060;-67
2022/04/23 13:26:21;;;;;;;61.42;26.90;;;;;;;;;;4992069;28;20047;-67
2022/04/23 13:28:49;;;;;;;66.97;28.13;;;;;;;;;;4992936;28;20096;-67
2022/04/23 13:31:16;;;;;;;60.42;26.58;;;;;;;;;;4993001;28;20082;-67
2022/04/23 13:33:44;;;;;;;57.00;25.77;;;;;;;;;;4993422;28;20385;-67
2022/04/23 13:36:11;;;;;;;57.72;26.65;;;;;;;;;;4992749;28;20051;-68
2022/04/23 13:38:38;;;;;;;59.70;27.77;;;;;;;;;;4993008;28;20140;-67
2022/04/23 13:41:12;;;;;;;59.60;25.52;;;;;;;;;;4992690;28;20047;-67
2022/04/23 13:43:40;;;;;;;54.70;25.75;;;;;;;;;;4992896;28;20462;-67
2022/04/23 13:46:08;;;;;;;57.33;26.80;;;;;;;;;;4992735;28;20089;-67
2022/04/23 13:48:35;;;;;;;57.08;26.75;;;;;;;;;;4993156;28;20073;-67
2022/04/23 13:51:03;;;;;;;55.80;27.52;;;;;;;;;;4992619;28;20141;-67
2022/04/23 13:53:30;;;;;;;58.42;26.75;;;;;;;;;;4992656;28;20107;-67
2022/04/23 13:55:57;;;;;;;59.58;26.85;;;;;;;;;;4992460;28;20054;-67
2022/04/23 13:58:25;;;;;;;59.70;26.98;;;;;;;;;;4992636;28;20058;-67
2022/04/23 14:00:52;;;;;;;51.22;24.65;;;;;;;;;;4992716;28;20129;-68
2022/04/23 14:11:33;;;;;;;48.92;25.33;;;;;;;;;;4995909;28;20096;-67
2022/04/23 14:14:01;;;;;;;49.95;24.05;;;;;;;;;;4996225;28;20090;-68
2022/04/23 14:16:29;;;;;;;53.85;26.02;;;;;;;;;;4995589;28;20054;-68
2022/04/23 14:18:56;;;;;;;61.50;27.25;;;;;;;;;;4996020;28;20058;-68
2022/04/23 14:21:23;;;;;;;50.75;25.42;;;;;;;;;;4995686;28;20100;-67
2022/04/23 14:23:50;;;;;;;51.00;25.55;;;;;;;;;;4995673;28;20054;-68
2022/04/23 14:26:17;;;;;;;49.72;24.50;;;;;;;;;;4995535;28;20051;-67
2022/04/23 14:28:44;;;;;;;52.60;26.38;;;;;;;;;;4995282;28;20137;-67
2022/04/23 14:31:13;;;;;;;47.90;25.95;;;;;;;;;;4995699;28;20061;-67
2022/04/23 14:33:40;;;;;;;52.88;26.20;;;;;;;;;;4995456;28;20055;-67
2022/04/23 14:36:07;;;;;;;52.90;26.02;;;;;;;;;;4995312;28;20050;-67
2022/04/23 14:38:37;;;;;;;51.50;25.55;;;;;;;;;;4995728;28;20555;-67
2022/04/23 14:41:04;;;;;;;;;;;;;;;;;;4995901;28;20050;-67
2022/04/23 14:43:31;;;;;;;49.90;24.05;;;;;;;;;;4995394;28;20445;-67
2022/04/23 14:45:58;;;;;;;50.58;25.77;;;;;;;;;;4986875;28;20205;-67
2022/04/23 14:48:27;;;;;;;48.55;25.30;;;;;;;;;;4975878;28;20050;-67
2022/04/23 14:53:39;;;;;;;54.03;27.23;;;;;;;;;;4975786;28;20498;-68
2022/04/23 14:56:06;;;;;;;66.50;34.65;;;;;;;;;;4975515;28;20139;-68
2022/04/23 14:58:33;;;;;;;65.63;31.25;;;;;;;;;;4975261;28;20059;-68
2022/04/23 15:01:00;;;;;;;52.22;26.73;;;;;;;;;;4975285;28;20050;-67
2022/04/23 15:03:28;;;;;;;49.80;26.52;;;;;;;;;;4975737;28;20078;-68
2022/04/23 15:05:56;;;;;;;49.55;25.45;;;;;;;;;;4975461;28;20057;-67
2022/04/23 15:08:23;;;;;;;47.83;25.73;;;;;;;;;;4975206;28;20056;-68
2022/04/23 15:10:50;;;;;;;49.20;25.63;;;;;;;;;;4975039;28;20416;-68
2022/04/23 15:13:17;;;;;;;49.67;26.92;;;;;;;;;;4975362;28;20055;-68
2022/04/23 15:15:45;;;;;;;50.85;25.92;;;;;;;;;;4974930;28;20062;-68